createdAt,value
2024-03-12T00:01:42.436Z,97655.74
2024-03-12T00:04:09.731Z,97654.86
2024-03-12T00:06:38.429Z,97659.73
2024-03-12T00:09:10.926Z,97658.34
2024-03-12T00:11:38.679Z,97655.04
2024-03-12T00:14:06.019Z,97655.20
2024-03-12T00:16:35.484Z,97654.39
2024-03-12T00:19:04.325Z,97654.90
2024-03-12T00:21:31.795Z,97654.48
2024-03-12T00:24:00.340Z,97652.92
2024-03-12T00:26:29.647Z,97658.23
2024-03-12T00:28:56.999Z,97653.61
2024-03-12T00:31:24.122Z,97660.64
2024-03-12T00:33:51.136Z,97659.81
2024-03-12T00:36:18.297Z,97656.86
2024-03-12T00:38:45.191Z,97656.60
2024-03-12T00:41:12.236Z,97651.68
2024-03-12T00:43:39.639Z,97652.69
2024-03-12T00:46:07.062Z,97653.01
2024-03-12T00:48:34.208Z,97652.37
2024-03-12T00:51:01.629Z,97653.55
2024-03-12T00:53:28.767Z,97659.13
2024-03-12T00:55:55.785Z,97658.16
2024-03-12T00:58:22.752Z,97654.98
2024-03-12T01:00:51.065Z,97658.20
2024-03-12T01:03:18.795Z,97661.66
2024-03-12T01:05:45.863Z,97664.64
2024-03-12T01:08:13.684Z,97662.64
2024-03-12T01:10:40.999Z,97661.17
2024-03-12T01:13:11.444Z,97660.33
2024-03-12T01:15:41.293Z,97661.45
2024-03-12T01:18:09.937Z,97662.21
2024-03-12T01:20:37.645Z,97662.38
2024-03-12T01:23:07.127Z,97659.40
2024-03-12T01:25:38.674Z,97651.86
2024-03-12T01:28:08.086Z,97655.44
2024-03-12T01:30:36.561Z,97654.77
2024-03-12T01:33:07.399Z,97657.98
2024-03-12T01:35:40.511Z,97657.47
2024-03-12T01:38:10.510Z,97654.99
2024-03-12T01:40:38.633Z,97654.98
2024-03-12T01:43:08.579Z,97647.80
2024-03-12T01:45:36.683Z,97646.95
2024-03-12T01:48:10.130Z,97651.77
2024-03-12T01:50:41.144Z,97649.39
2024-03-12T01:53:09.291Z,97656.02
2024-03-12T01:55:45.185Z,97655.72
2024-03-12T01:58:17.068Z,97656.89
2024-03-12T02:00:46.258Z,97655.01
2024-03-12T02:03:14.344Z,97656.31
2024-03-12T02:05:42.927Z,97657.51
2024-03-12T02:08:11.130Z,97654.66
2024-03-12T02:10:38.696Z,97654.41
2024-03-12T02:13:06.849Z,97656.65
2024-03-12T02:15:35.662Z,97656.38
2024-03-12T02:18:03.364Z,97659.71
2024-03-12T02:20:30.357Z,97669.02
2024-03-12T02:22:57.472Z,97669.05
2024-03-12T02:25:25.040Z,97667.61
2024-03-12T02:27:53.445Z,97672.08
2024-03-12T02:30:21.200Z,97671.98
2024-03-12T02:32:49.385Z,97672.90
2024-03-12T02:35:18.417Z,97676.52
2024-03-12T02:37:46.127Z,97673.61
2024-03-12T02:40:15.214Z,97676.91
2024-03-12T02:42:43.827Z,97677.55
2024-03-12T02:45:16.719Z,97679.80
2024-03-12T02:47:47.069Z,97681.09
2024-03-12T02:50:15.421Z,97679.20
2024-03-12T02:52:43.651Z,97678.38
2024-03-12T02:55:11.235Z,97678.80
2024-03-12T02:57:39.271Z,97679.55
2024-03-12T03:00:13.685Z,97682.67
2024-03-12T03:02:43.078Z,97682.52
2024-03-12T03:05:12.064Z,97685.33
2024-03-12T03:07:43.789Z,97685.38
2024-03-12T03:10:12.853Z,97686.55
2024-03-12T03:12:41.225Z,97687.06
2024-03-12T03:15:13.228Z,97683.63
2024-03-12T03:17:43.725Z,97689.95
2024-03-12T03:20:16.474Z,97695.96
2024-03-12T03:22:44.743Z,97699.88
2024-03-12T03:25:15.813Z,97701.34
2024-03-12T03:27:43.687Z,97699.40
2024-03-12T03:30:14.500Z,97697.23
2024-03-12T03:32:41.660Z,97698.53
2024-03-12T03:35:08.910Z,97696.75
2024-03-12T03:37:41.810Z,97700.79
2024-03-12T03:40:11.825Z,97697.46
2024-03-12T03:42:39.816Z,97703.83
2024-03-12T03:45:07.178Z,97707.30
2024-03-12T03:47:36.991Z,97710.98
2024-03-12T03:50:09.642Z,97718.53
2024-03-12T03:52:40.084Z,97717.46
2024-03-12T03:55:08.407Z,97716.85
2024-03-12T03:57:35.534Z,97716.14
2024-03-12T04:00:14.308Z,97718.67
2024-03-12T04:02:44.784Z,97719.57
2024-03-12T04:05:12.969Z,97717.73
2024-03-12T04:07:42.483Z,97716.89
2024-03-12T04:10:13.116Z,97715.11
2024-03-12T04:12:48.147Z,97712.99
2024-03-12T04:15:16.073Z,97712.24
2024-03-12T04:17:45.909Z,97712.21
2024-03-12T04:20:13.502Z,97713.77
2024-03-12T04:22:44.757Z,97713.33
2024-03-12T04:25:17.490Z,97714.00
2024-03-12T04:27:44.676Z,97716.53
2024-03-12T04:30:12.780Z,97720.98
2024-03-12T04:32:40.681Z,97720.80
2024-03-12T04:35:14.057Z,97728.66
2024-03-12T04:37:41.467Z,97732.48
2024-03-12T04:40:09.680Z,97734.47
2024-03-12T04:42:38.695Z,97733.59
2024-03-12T04:45:08.337Z,97731.43
2024-03-12T04:47:38.603Z,97733.61
2024-03-12T04:50:05.904Z,97736.55
2024-03-12T04:52:35.125Z,97736.83
2024-03-12T04:55:02.992Z,97739.30
2024-03-12T04:57:30.078Z,97743.75
2024-03-12T04:59:57.798Z,97748.58
2024-03-12T05:02:24.772Z,97749.09
2024-03-12T05:04:54.341Z,97744.18
2024-03-12T05:07:21.622Z,97747.46
2024-03-12T05:09:48.544Z,97755.77
2024-03-12T05:12:16.260Z,97757.02
2024-03-12T05:14:43.106Z,97758.36
2024-03-12T05:17:10.666Z,97757.10
2024-03-12T05:19:37.905Z,97756.21
2024-03-12T05:22:05.286Z,97758.88
2024-03-12T05:24:35.389Z,97755.30
2024-03-12T05:27:04.760Z,97756.95
2024-03-12T05:29:43.584Z,97760.54
2024-03-12T05:32:19.460Z,97761.21
2024-03-12T05:34:54.186Z,97766.72
2024-03-12T05:37:30.575Z,97771.73
2024-03-12T05:40:16.576Z,97771.39
2024-03-12T05:43:05.718Z,97773.37
2024-03-12T05:45:58.517Z,97774.43
2024-03-12T05:48:25.545Z,97776.02
2024-03-12T05:50:52.746Z,97781.36
2024-03-12T05:53:20.482Z,97782.83
2024-03-12T05:55:47.538Z,97780.30
2024-03-12T05:58:16.880Z,97788.19
2024-03-12T06:00:46.607Z,97785.66
2024-03-12T06:03:13.641Z,97788.27
2024-03-12T06:05:42.599Z,97791.48
2024-03-12T06:08:09.744Z,97791.68
2024-03-12T06:10:37.798Z,97797.27
2024-03-12T06:13:04.870Z,97797.52
2024-03-12T06:15:32.520Z,97802.30
2024-03-12T06:18:00.745Z,97806.94
2024-03-12T06:20:29.862Z,97805.64
2024-03-12T06:23:01.668Z,97807.84
2024-03-12T06:25:29.240Z,97811.88
2024-03-12T06:28:00.641Z,97813.95
2024-03-12T06:30:27.783Z,97815.85
2024-03-12T06:32:55.103Z,97819.75
2024-03-12T06:35:22.104Z,97816.42
2024-03-12T06:37:49.127Z,97815.93
2024-03-12T06:40:18.640Z,97819.25
2024-03-12T06:42:46.503Z,97820.39
2024-03-12T06:45:13.977Z,97825.34
2024-03-12T06:47:43.110Z,97826.58
2024-03-12T06:50:11.244Z,97832.64
2024-03-12T06:52:38.543Z,97831.91
2024-03-12T06:55:17.013Z,97835.45
2024-03-12T06:57:53.330Z,97837.23
2024-03-12T07:00:28.071Z,97839.45
2024-03-12T07:02:55.518Z,97842.22
2024-03-12T07:05:24.353Z,97846.96
2024-03-12T07:07:51.287Z,97844.94
2024-03-12T07:10:20.026Z,97850.92
2024-03-12T07:12:47.684Z,97849.56
2024-03-12T07:15:15.227Z,97851.84
2024-03-12T07:17:43.052Z,97848.41
2024-03-12T07:20:13.824Z,97848.96
2024-03-12T07:22:46.473Z,97852.23
2024-03-12T07:25:15.138Z,97857.41
2024-03-12T07:27:42.962Z,97862.39
2024-03-12T07:30:11.783Z,97863.30
2024-03-12T07:32:40.652Z,97859.38
2024-03-12T07:35:08.003Z,97864.66
2024-03-12T07:37:40.800Z,97867.84
2024-03-12T07:40:17.738Z,97870.27
2024-03-12T07:42:45.918Z,97870.38
2024-03-12T07:45:16.039Z,97875.77
2024-03-12T07:47:43.807Z,97878.23
2024-03-12T07:50:15.280Z,97879.55
2024-03-12T07:52:42.888Z,97881.52
2024-03-12T07:55:11.276Z,97880.98
2024-03-12T07:57:39.594Z,97878.71
2024-03-12T08:00:17.971Z,97882.88
2024-03-12T08:02:45.612Z,97882.54
2024-03-12T08:05:14.292Z,97887.38
2024-03-12T08:07:41.259Z,97886.90
2024-03-12T08:10:11.248Z,97891.23
2024-03-12T08:12:42.393Z,97890.90
2024-03-12T08:15:14.501Z,97892.66
2024-03-12T08:17:44.030Z,97891.23
2024-03-12T08:20:14.812Z,97894.54
2024-03-12T08:22:42.966Z,97898.06
2024-03-12T08:25:13.191Z,97903.39
2024-03-12T08:27:42.033Z,97902.54
2024-03-12T08:30:09.912Z,97907.15
2024-03-12T08:32:43.154Z,97910.00
2024-03-12T08:35:12.163Z,97909.40
2024-03-12T08:37:39.538Z,97906.52
2024-03-12T08:40:08.776Z,97911.55
2024-03-12T08:42:44.676Z,97912.80
2024-03-12T08:45:20.529Z,97910.48
2024-03-12T08:47:49.986Z,97913.06
2024-03-12T08:50:18.443Z,97914.16
2024-03-12T08:52:46.012Z,97914.00
2024-03-12T08:55:13.205Z,97915.16
2024-03-12T08:57:40.373Z,97915.01
2024-03-12T09:00:12.728Z,97917.02
2024-03-12T09:02:43.098Z,97919.98
2024-03-12T09:05:11.053Z,97919.77
2024-03-12T09:07:38.411Z,97919.55
2024-03-12T09:10:13.077Z,97920.98
2024-03-12T09:12:42.453Z,97926.11
2024-03-12T09:15:10.949Z,97926.66
2024-03-12T09:17:39.795Z,97930.05
2024-03-12T09:20:11.512Z,97930.17
2024-03-12T09:22:39.185Z,97929.55
2024-03-12T09:25:07.337Z,97930.19
2024-03-12T09:27:35.369Z,97932.27
2024-03-12T09:30:04.575Z,97934.21
2024-03-12T09:32:31.689Z,97932.02
2024-03-12T09:34:59.447Z,97937.63
2024-03-12T09:37:28.550Z,97943.13
2024-03-12T09:39:55.601Z,97942.27
2024-03-12T09:42:27.463Z,97938.78
2024-03-12T09:44:54.828Z,97937.98
2024-03-12T09:47:22.292Z,97939.50
2024-03-12T09:49:50.439Z,97943.26
2024-03-12T09:52:17.782Z,97946.24
2024-03-12T09:54:46.195Z,97948.41
2024-03-12T09:57:14.259Z,97946.95
2024-03-12T09:59:42.343Z,97947.98
2024-03-12T10:02:10.697Z,97952.84
2024-03-12T10:04:38.072Z,97955.46
2024-03-12T10:07:07.100Z,97953.25
2024-03-12T10:09:34.504Z,97952.86
2024-03-12T10:12:05.110Z,97957.08
2024-03-12T10:14:35.322Z,97958.27
2024-03-12T10:17:22.113Z,97957.61
2024-03-12T10:19:52.001Z,97962.04
2024-03-12T10:22:23.751Z,97962.52
2024-03-12T10:24:51.156Z,97964.26
2024-03-12T10:27:19.441Z,97965.52
2024-03-12T10:29:46.394Z,97969.59
2024-03-12T10:32:20.519Z,97971.66
2024-03-12T10:34:48.511Z,97972.60
2024-03-12T10:37:36.765Z,97974.20
2024-03-12T10:40:21.107Z,97975.95
2024-03-12T10:43:07.325Z,97978.44
2024-03-12T10:45:36.486Z,97981.29
2024-03-12T10:48:07.435Z,97980.95
2024-03-12T10:50:35.604Z,97983.12
2024-03-12T10:53:03.290Z,97983.77
2024-03-12T10:55:34.430Z,97981.13
2024-03-12T10:58:03.904Z,97982.17
2024-03-12T11:00:31.776Z,97977.18
2024-03-12T11:02:59.100Z,97974.16
2024-03-12T11:05:28.620Z,97972.59
2024-03-12T11:07:59.171Z,97970.73
2024-03-12T11:10:31.795Z,97966.21
2024-03-12T11:13:03.157Z,97968.97
2024-03-12T11:15:32.965Z,97970.53
2024-03-12T11:18:00.503Z,97971.90
2024-03-12T11:20:29.082Z,97972.49
2024-03-12T11:23:01.760Z,97971.16
2024-03-12T11:25:40.897Z,97972.70
2024-03-12T11:28:25.025Z,97976.09
2024-03-12T11:30:58.138Z,97974.16
2024-03-12T11:33:46.814Z,97973.90
2024-03-12T11:36:47.689Z,97971.20
2024-03-12T11:39:30.822Z,97972.34
2024-03-12T11:42:01.854Z,97968.99
2024-03-12T11:44:46.068Z,97972.58
2024-03-12T11:47:31.708Z,97968.66
2024-03-12T11:50:03.045Z,97968.58
2024-03-12T11:52:33.572Z,97966.64
2024-03-12T11:55:01.545Z,97971.45
2024-03-12T11:57:33.403Z,97974.04
2024-03-12T12:00:01.329Z,97977.86
2024-03-12T12:02:28.547Z,97975.91
2024-03-12T12:04:57.237Z,97978.05
2024-03-12T12:07:29.422Z,97974.64
2024-03-12T12:09:56.837Z,97983.50
2024-03-12T12:12:24.037Z,97977.98
2024-03-12T12:14:51.080Z,97978.59
2024-03-12T12:17:32.346Z,97979.54
2024-03-12T12:20:17.352Z,97982.47
2024-03-12T12:22:48.773Z,97980.84
2024-03-12T12:25:20.317Z,97983.38
2024-03-12T12:27:48.262Z,97985.44
2024-03-12T12:30:20.723Z,97986.88
2024-03-12T12:32:50.635Z,97986.16
2024-03-12T12:35:21.016Z,97987.91
2024-03-12T12:37:50.221Z,97991.73
2024-03-12T12:40:23.015Z,97992.77
2024-03-12T12:42:51.742Z,97992.73
2024-03-12T12:45:19.053Z,97994.54
2024-03-12T12:47:50.624Z,97995.01
2024-03-12T12:50:29.148Z,97993.98
2024-03-12T12:53:01.032Z,97992.67
2024-03-12T12:55:29.111Z,97990.98
2024-03-12T12:58:04.026Z,97995.03
2024-03-12T13:00:45.513Z,97994.58
2024-03-12T13:03:17.531Z,97999.03
2024-03-12T13:05:46.885Z,98000.49
2024-03-12T13:08:28.502Z,97997.86
2024-03-12T13:11:01.459Z,98004.98
2024-03-12T13:13:29.532Z,98008.02
2024-03-12T13:15:56.494Z,98008.89
2024-03-12T13:18:23.488Z,98009.86
2024-03-12T13:20:50.974Z,98010.84
2024-03-12T13:23:18.396Z,98016.23
2024-03-12T13:25:46.751Z,98017.55
2024-03-12T13:28:16.790Z,98020.23
2024-03-12T13:30:47.833Z,98019.52
2024-03-12T13:33:15.374Z,98021.87
2024-03-12T13:35:43.503Z,98020.83
2024-03-12T13:38:15.651Z,98023.41
2024-03-12T13:40:43.152Z,98024.82
2024-03-12T13:43:12.672Z,98020.76
2024-03-12T13:45:40.031Z,98020.08
2024-03-12T13:48:08.260Z,98019.80
2024-03-12T13:50:35.653Z,98016.19
2024-03-12T13:53:04.611Z,98017.45
2024-03-12T13:55:31.578Z,98013.94
2024-03-12T13:57:58.797Z,98016.80
2024-03-12T14:00:28.090Z,98016.67
2024-03-12T14:02:55.572Z,98019.68
2024-03-12T14:05:22.589Z,98019.05
2024-03-12T14:07:49.581Z,98022.48
2024-03-12T14:10:16.768Z,98025.39
2024-03-12T14:12:43.745Z,98025.95
2024-03-12T14:15:11.511Z,98028.73
2024-03-12T14:17:39.419Z,98028.02
2024-03-12T14:20:12.443Z,98024.16
2024-03-12T14:22:45.204Z,98027.30
2024-03-12T14:25:14.375Z,98032.48
2024-03-12T14:27:41.891Z,98027.83
2024-03-12T14:30:09.811Z,98032.82
2024-03-12T14:32:38.316Z,98029.05
2024-03-12T14:35:08.883Z,98036.79
2024-03-12T14:37:36.550Z,98037.69
2024-03-12T14:40:08.978Z,98033.67
2024-03-12T14:42:36.166Z,98039.77
2024-03-12T14:45:03.752Z,98039.27
2024-03-12T14:47:30.958Z,98039.13
2024-03-12T14:49:58.736Z,98041.66
2024-03-12T14:52:26.915Z,98043.28
2024-03-12T14:54:55.038Z,98042.06
2024-03-12T14:57:22.638Z,98047.73
2024-03-12T14:59:49.897Z,98046.52
2024-03-12T15:02:17.041Z,98050.37
2024-03-12T15:04:44.881Z,98051.46
2024-03-12T15:07:12.182Z,98055.30
2024-03-12T15:09:39.219Z,98059.92
2024-03-12T15:12:09.111Z,98060.16
2024-03-12T15:14:37.519Z,98060.17
2024-03-12T15:17:05.121Z,98062.80
2024-03-12T15:19:32.274Z,98064.72
2024-03-12T15:22:00.781Z,98066.56
2024-03-12T15:24:28.224Z,98072.11
2024-03-12T15:26:57.274Z,98072.94
2024-03-12T15:29:24.675Z,98075.02
2024-03-12T15:31:51.575Z,98075.16
2024-03-12T15:34:20.317Z,98078.67
2024-03-12T15:36:50.874Z,98077.16
2024-03-12T15:39:24.894Z,98081.90
2024-03-12T15:41:52.732Z,98083.35
2024-03-12T15:44:20.100Z,98087.52
2024-03-12T15:46:48.684Z,98092.16
2024-03-12T15:49:17.960Z,98094.05
2024-03-12T15:51:46.429Z,98101.55
2024-03-12T15:54:15.973Z,98097.06
2024-03-12T15:56:45.705Z,98098.17
2024-03-12T15:59:15.779Z,98100.65
2024-03-12T16:01:47.244Z,98102.44
2024-03-12T16:04:14.773Z,98097.92
2024-03-12T16:06:43.258Z,98100.05
2024-03-12T16:09:15.136Z,98098.25
2024-03-12T16:11:42.136Z,98103.84
2024-03-12T16:14:12.191Z,98106.57
2024-03-12T16:16:40.880Z,98106.98
2024-03-12T16:19:08.508Z,98109.40
2024-03-12T16:21:35.694Z,98108.59
2024-03-12T16:24:03.176Z,98105.16
2024-03-12T16:26:30.083Z,98104.73
2024-03-12T16:28:57.111Z,98106.80
2024-03-12T16:31:24.410Z,98108.20
2024-03-12T16:33:52.546Z,98109.70
2024-03-12T16:36:19.656Z,98108.85
2024-03-12T16:38:49.731Z,98112.73
2024-03-12T16:41:17.050Z,98120.33
2024-03-12T16:43:44.624Z,98111.85
2024-03-12T16:46:12.000Z,98117.70
2024-03-12T16:48:41.153Z,98116.20
2024-03-12T16:51:08.550Z,98121.46
2024-03-12T16:53:36.934Z,98123.77
2024-03-12T16:56:04.250Z,98120.37
2024-03-12T16:58:31.466Z,98119.80
2024-03-12T17:01:03.596Z,98118.34
2024-03-12T17:03:31.510Z,98122.04
2024-03-12T17:05:59.045Z,98123.72
2024-03-12T17:08:30.370Z,98117.95
2024-03-12T17:10:57.573Z,98124.89
2024-03-12T17:13:25.933Z,98125.85
2024-03-12T17:15:55.195Z,98124.63
2024-03-12T17:18:25.602Z,98126.08
2024-03-12T17:20:55.889Z,98128.61
2024-03-12T17:23:25.392Z,98130.21
2024-03-12T17:25:57.072Z,98133.54
2024-03-12T17:28:27.910Z,98134.05
2024-03-12T17:30:55.793Z,98138.14
2024-03-12T17:33:29.282Z,98138.98
2024-03-12T17:35:57.189Z,98141.38
2024-03-12T17:38:26.346Z,98144.91
2024-03-12T17:40:59.595Z,98151.47
2024-03-12T17:43:27.459Z,98149.21
2024-03-12T17:45:55.202Z,98153.38
2024-03-12T17:48:26.446Z,98153.57
2024-03-12T17:50:53.885Z,98157.16
2024-03-12T17:53:23.214Z,98158.81
2024-03-12T17:55:52.949Z,98164.73
2024-03-12T17:58:22.802Z,98164.46
2024-03-12T18:00:51.616Z,98166.36
2024-03-12T18:03:20.336Z,98171.43
2024-03-12T18:05:47.601Z,98170.63
2024-03-12T18:08:26.042Z,98172.63
2024-03-12T18:10:57.108Z,98174.67
2024-03-12T18:13:24.572Z,98174.58
2024-03-12T18:15:53.159Z,98173.55
2024-03-12T18:18:20.272Z,98175.73
2024-03-12T18:20:47.740Z,98176.11
2024-03-12T18:23:15.581Z,98178.09
2024-03-12T18:25:42.753Z,98180.60
2024-03-12T18:28:09.810Z,98182.73
2024-03-12T18:30:37.828Z,98183.63
2024-03-12T18:33:05.431Z,98185.45
2024-03-12T18:35:32.524Z,98189.14
2024-03-12T18:38:00.054Z,98188.68
2024-03-12T18:40:27.387Z,98195.61
2024-03-12T18:42:55.498Z,98192.67
2024-03-12T18:45:24.803Z,98192.58
2024-03-12T18:47:54.504Z,98195.73
2024-03-12T18:50:29.187Z,98195.16
2024-03-12T18:52:56.785Z,98196.60
2024-03-12T18:55:24.764Z,98198.95
2024-03-12T18:57:55.685Z,98200.97
2024-03-12T19:00:31.353Z,98206.55
2024-03-12T19:03:09.894Z,98204.25
2024-03-12T19:05:37.034Z,98206.25
2024-03-12T19:08:04.836Z,98203.39
2024-03-12T19:10:32.418Z,98210.11
2024-03-12T19:12:59.948Z,98210.89
2024-03-12T19:15:34.510Z,98209.81
2024-03-12T19:18:05.509Z,98214.95
2024-03-12T19:20:33.370Z,98216.33
2024-03-12T19:23:00.678Z,98218.08
2024-03-12T19:25:27.895Z,98221.02
2024-03-12T19:27:55.190Z,98220.13
2024-03-12T19:30:25.960Z,98221.52
2024-03-12T19:32:56.737Z,98226.36
2024-03-12T19:35:23.859Z,98223.90
2024-03-12T19:37:54.189Z,98222.77
2024-03-12T19:40:23.064Z,98221.21
2024-03-12T19:42:51.256Z,98223.77
2024-03-12T19:45:21.236Z,98224.11
2024-03-12T19:47:50.566Z,98222.95
2024-03-12T19:50:21.385Z,98227.91
2024-03-12T19:52:48.781Z,98228.48
2024-03-12T19:55:20.597Z,98233.02
2024-03-12T19:57:53.577Z,98235.36
2024-03-12T20:00:33.256Z,98236.67
2024-03-12T20:03:04.030Z,98232.52
2024-03-12T20:05:33.340Z,98234.46
2024-03-12T20:08:08.303Z,98233.76
2024-03-12T20:10:38.464Z,98236.36
2024-03-12T20:13:06.697Z,98235.83
2024-03-12T20:15:34.475Z,98235.58
2024-03-12T20:18:04.504Z,98237.07
2024-03-12T20:20:31.666Z,98240.63
2024-03-12T20:22:59.937Z,98244.10
2024-03-12T20:25:27.814Z,98246.20
2024-03-12T20:27:56.596Z,98247.46
2024-03-12T20:30:31.286Z,98239.39
2024-03-12T20:33:00.141Z,98243.66
2024-03-12T20:35:31.547Z,98242.48
2024-03-12T20:37:59.040Z,98245.64
2024-03-12T20:40:27.108Z,98247.73
2024-03-12T20:42:56.343Z,98248.53
2024-03-12T20:45:23.932Z,98251.73
2024-03-12T20:47:51.394Z,98251.17
2024-03-12T20:50:21.880Z,98250.95
2024-03-12T20:52:48.883Z,98251.30
2024-03-12T20:55:16.359Z,98254.25
2024-03-12T20:57:48.449Z,98253.98
2024-03-12T21:00:27.910Z,98252.52
2024-03-12T21:02:55.285Z,98254.62
2024-03-12T21:05:22.542Z,98253.89
2024-03-12T21:07:51.666Z,98257.36
2024-03-12T21:10:20.321Z,98256.67
2024-03-12T21:12:52.369Z,98257.28
2024-03-12T21:15:20.299Z,98261.89
2024-03-12T21:17:47.758Z,98262.31
2024-03-12T21:20:23.279Z,98265.09
2024-03-12T21:22:51.193Z,98265.48
2024-03-12T21:25:20.103Z,98267.39
2024-03-12T21:27:48.368Z,98264.42
2024-03-12T21:30:20.232Z,98267.09
2024-03-12T21:32:48.813Z,98267.06
2024-03-12T21:35:17.181Z,98269.34
2024-03-12T21:37:44.450Z,98271.21
2024-03-12T21:40:12.829Z,98269.55
2024-03-12T21:42:44.075Z,98268.84
2024-03-12T21:45:11.459Z,98271.88
2024-03-12T21:47:38.681Z,98273.99
2024-03-12T21:50:10.227Z,98273.03
2024-03-12T21:52:37.494Z,98276.13
2024-03-12T21:55:07.525Z,98276.71
2024-03-12T21:57:34.863Z,98278.56
2024-03-12T22:00:02.153Z,98278.17
2024-03-12T22:02:29.525Z,98281.60
2024-03-12T22:04:56.779Z,98283.88
2024-03-12T22:07:27.640Z,98283.71
2024-03-12T22:09:54.735Z,98285.44
2024-03-12T22:12:23.180Z,98286.86
2024-03-12T22:14:50.484Z,98291.86
2024-03-12T22:17:17.424Z,98291.08
2024-03-12T22:19:44.614Z,98295.06
2024-03-12T22:22:12.201Z,98297.65
2024-03-12T22:24:39.210Z,98297.01
2024-03-12T22:27:08.245Z,98296.88
2024-03-12T22:29:35.181Z,98296.77
2024-03-12T22:32:06.013Z,98294.86
2024-03-12T22:34:35.029Z,98299.17
2024-03-12T22:37:02.659Z,98300.35
2024-03-12T22:39:32.171Z,98301.78
2024-03-12T22:41:59.993Z,98300.10
2024-03-12T22:44:27.254Z,98303.27
2024-03-12T22:46:54.610Z,98304.48
2024-03-12T22:49:21.897Z,98303.48
2024-03-12T22:51:52.001Z,98303.56
2024-03-12T22:54:21.866Z,98303.98
2024-03-12T22:56:49.047Z,98305.46
2024-03-12T22:59:16.241Z,98304.21
2024-03-12T23:01:47.824Z,98307.92
2024-03-12T23:04:18.128Z,98310.27
2024-03-12T23:06:46.379Z,98309.27
2024-03-12T23:09:15.024Z,98309.52
2024-03-12T23:11:42.750Z,98309.39
2024-03-12T23:14:10.834Z,98312.87
2024-03-12T23:16:38.291Z,98312.98
2024-03-12T23:19:06.165Z,98314.20
2024-03-12T23:21:36.783Z,98314.16
2024-03-12T23:24:05.154Z,98313.40
2024-03-12T23:26:33.312Z,98311.33
2024-03-12T23:29:00.224Z,98312.25
2024-03-12T23:31:27.277Z,98312.02
2024-03-12T23:33:56.168Z,98315.09
2024-03-12T23:36:28.787Z,98311.52
2024-03-12T23:38:56.299Z,98313.12
2024-03-12T23:41:24.974Z,98312.20
2024-03-12T23:43:54.246Z,98313.95
2024-03-12T23:46:22.812Z,98314.45
2024-03-12T23:48:50.200Z,98316.22
2024-03-12T23:51:17.529Z,98317.81
2024-03-12T23:53:44.736Z,98319.89
2024-03-12T23:56:12.013Z,98321.60
2024-03-12T23:58:39.899Z,98321.80
